sensor_id;sensor_type;location;lat;lon;timestamp;P1;durP1;ratioP1;P2;durP2;ratioP2
13032;SDS011;6583;42.632;23.298;2022-07-29T00:00:52;7.60;;;6.50;;
13032;SDS011;6583;42.632;23.298;2022-07-29T00:03:19;6.70;;;6.00;;
13032;SDS011;6583;42.632;23.298;2022-07-29T00:05:45;6.93;;;6.10;;
13032;SDS011;6583;42.632;23.298;2022-07-29T00:08:12;6.97;;;6.35;;
13032;SDS011;6583;42.632;23.298;2022-07-29T00:10:40;7.47;;;6.45;;
13032;SDS011;6583;42.632;23.298;2022-07-29T00:13:07;7.38;;;6.68;;
13032;SDS011;6583;42.632;23.298;2022-07-29T00:15:35;6.93;;;6.22;;
13032;SDS011;6583;42.632;23.298;2022-07-29T00:18:02;7.07;;;6.38;;
13032;SDS011;6583;42.632;23.298;2022-07-29T00:20:29;7.50;;;6.80;;
13032;SDS011;6583;42.632;23.298;2022-07-29T00:22:56;8.52;;;7.28;;
13032;SDS011;6583;42.632;23.298;2022-07-29T00:25:23;7.10;;;6.47;;
13032;SDS011;6583;42.632;23.298;2022-07-29T00:27:50;7.22;;;6.45;;
13032;SDS011;6583;42.632;23.298;2022-07-29T00:30:17;7.40;;;6.60;;
13032;SDS011;6583;42.632;23.298;2022-07-29T00:32:45;8.07;;;6.50;;
13032;SDS011;6583;42.632;23.298;2022-07-29T00:35:11;7.25;;;6.60;;
13032;SDS011;6583;42.632;23.298;2022-07-29T00:37:55;7.65;;;6.95;;
13032;SDS011;6583;42.632;23.298;2022-07-29T00:40:22;7.22;;;6.50;;
13032;SDS011;6583;42.632;23.298;2022-07-29T00:42:49;8.32;;;6.45;;
13032;SDS011;6583;42.632;23.298;2022-07-29T00:45:17;7.47;;;6.78;;
13032;SDS011;6583;42.632;23.298;2022-07-29T00:47:46;7.25;;;6.53;;
13032;SDS011;6583;42.632;23.298;2022-07-29T00:50:12;7.82;;;6.40;;
13032;SDS011;6583;42.632;23.298;2022-07-29T00:52:40;7.55;;;6.80;;
13032;SDS011;6583;42.632;23.298;2022-07-29T00:55:09;7.75;;;6.93;;
13032;SDS011;6583;42.632;23.298;2022-07-29T00:57:37;7.72;;;6.72;;
13032;SDS011;6583;42.632;23.298;2022-07-29T01:00:05;7.45;;;6.75;;
13032;SDS011;6583;42.632;23.298;2022-07-29T01:02:34;7.28;;;6.57;;
13032;SDS011;6583;42.632;23.298;2022-07-29T01:05:02;7.72;;;6.60;;
13032;SDS011;6583;42.632;23.298;2022-07-29T01:07:30;7.50;;;6.80;;
13032;SDS011;6583;42.632;23.298;2022-07-29T01:09:59;8.18;;;6.95;;
13032;SDS011;6583;42.632;23.298;2022-07-29T01:12:27;7.88;;;7.07;;
13032;SDS011;6583;42.632;23.298;2022-07-29T01:14:57;7.47;;;6.70;;
13032;SDS011;6583;42.632;23.298;2022-07-29T01:17:26;7.63;;;6.90;;
13032;SDS011;6583;42.632;23.298;2022-07-29T01:19:56;7.80;;;7.10;;
13032;SDS011;6583;42.632;23.298;2022-07-29T01:22:31;9.10;;;7.32;;
13032;SDS011;6583;42.632;23.298;2022-07-29T01:25:14;8.18;;;7.38;;
13032;SDS011;6583;42.632;23.298;2022-07-29T01:27:52;8.00;;;7.20;;
13032;SDS011;6583;42.632;23.298;2022-07-29T01:30:34;7.88;;;7.15;;
13032;SDS011;6583;42.632;23.298;2022-07-29T01:33:06;8.65;;;7.75;;
13032;SDS011;6583;42.632;23.298;2022-07-29T01:35:36;8.32;;;7.53;;
13032;SDS011;6583;42.632;23.298;2022-07-29T01:38:08;8.18;;;7.47;;
13032;SDS011;6583;42.632;23.298;2022-07-29T01:40:40;8.65;;;7.78;;
13032;SDS011;6583;42.632;23.298;2022-07-29T01:43:11;8.63;;;7.72;;
13032;SDS011;6583;42.632;23.298;2022-07-29T01:45:45;9.00;;;8.20;;
13032;SDS011;6583;42.632;23.298;2022-07-29T01:48:18;8.35;;;7.55;;
13032;SDS011;6583;42.632;23.298;2022-07-29T01:50:50;8.40;;;7.60;;
13032;SDS011;6583;42.632;23.298;2022-07-29T01:53:23;8.55;;;7.68;;
13032;SDS011;6583;42.632;23.298;2022-07-29T01:55:52;9.43;;;7.28;;
13032;SDS011;6583;42.632;23.298;2022-07-29T01:58:22;8.43;;;7.63;;
13032;SDS011;6583;42.632;23.298;2022-07-29T02:00:52;8.88;;;7.75;;
13032;SDS011;6583;42.632;23.298;2022-07-29T02:03:20;7.63;;;6.93;;
13032;SDS011;6583;42.632;23.298;2022-07-29T02:05:48;7.75;;;7.05;;
13032;SDS011;6583;42.632;23.298;2022-07-29T02:08:17;8.20;;;7.40;;
13032;SDS011;6583;42.632;23.298;2022-07-29T02:10:46;8.20;;;7.45;;
13032;SDS011;6583;42.632;23.298;2022-07-29T02:13:15;8.07;;;7.35;;
13032;SDS011;6583;42.632;23.298;2022-07-29T02:15:44;8.60;;;7.55;;
13032;SDS011;6583;42.632;23.298;2022-07-29T02:18:14;8.35;;;7.55;;
13032;SDS011;6583;42.632;23.298;2022-07-29T02:20:44;7.75;;;6.95;;
13032;SDS011;6583;42.632;23.298;2022-07-29T02:23:12;8.05;;;7.35;;
13032;SDS011;6583;42.632;23.298;2022-07-29T02:25:44;7.80;;;7.07;;
13032;SDS011;6583;42.632;23.298;2022-07-29T02:28:13;8.82;;;7.30;;
13032;SDS011;6583;42.632;23.298;2022-07-29T02:30:41;8.10;;;6.95;;
13032;SDS011;6583;42.632;23.298;2022-07-29T02:33:09;7.57;;;6.88;;
13032;SDS011;6583;42.632;23.298;2022-07-29T02:35:42;7.78;;;6.97;;
13032;SDS011;6583;42.632;23.298;2022-07-29T02:38:12;8.30;;;7.50;;
13032;SDS011;6583;42.632;23.298;2022-07-29T02:40:57;8.02;;;7.25;;
13032;SDS011;6583;42.632;23.298;2022-07-29T02:43:27;8.30;;;7.38;;
13032;SDS011;6583;42.632;23.298;2022-07-29T02:45:56;7.63;;;6.82;;
13032;SDS011;6583;42.632;23.298;2022-07-29T02:48:27;8.05;;;7.18;;
13032;SDS011;6583;42.632;23.298;2022-07-29T02:51:05;8.45;;;7.57;;
13032;SDS011;6583;42.632;23.298;2022-07-29T02:53:36;8.30;;;7.50;;
13032;SDS011;6583;42.632;23.298;2022-07-29T02:56:06;8.13;;;7.22;;
13032;SDS011;6583;42.632;23.298;2022-07-29T02:58:38;7.90;;;6.90;;
13032;SDS011;6583;42.632;23.298;2022-07-29T03:01:08;8.13;;;6.90;;
13032;SDS011;6583;42.632;23.298;2022-07-29T03:03:41;8.25;;;7.47;;
13032;SDS011;6583;42.632;23.298;2022-07-29T03:06:10;7.78;;;6.93;;
13032;SDS011;6583;42.632;23.298;2022-07-29T03:08:39;7.32;;;6.63;;
13032;SDS011;6583;42.632;23.298;2022-07-29T03:11:07;7.97;;;7.10;;
13032;SDS011;6583;42.632;23.298;2022-07-29T03:13:34;8.35;;;7.53;;
13032;SDS011;6583;42.632;23.298;2022-07-29T03:16:02;8.00;;;7.20;;
13032;SDS011;6583;42.632;23.298;2022-07-29T03:18:30;8.15;;;7.35;;
13032;SDS011;6583;42.632;23.298;2022-07-29T03:20:59;8.45;;;7.55;;
13032;SDS011;6583;42.632;23.298;2022-07-29T03:23:25;8.93;;;8.02;;
13032;SDS011;6583;42.632;23.298;2022-07-29T03:25:53;7.97;;;7.20;;
13032;SDS011;6583;42.632;23.298;2022-07-29T03:28:20;8.55;;;7.75;;
13032;SDS011;6583;42.632;23.298;2022-07-29T03:30:47;8.90;;;7.63;;
13032;SDS011;6583;42.632;23.298;2022-07-29T03:33:13;8.50;;;7.70;;
13032;SDS011;6583;42.632;23.298;2022-07-29T03:35:40;8.23;;;7.40;;
13032;SDS011;6583;42.632;23.298;2022-07-29T03:38:08;8.93;;;7.35;;
13032;SDS011;6583;42.632;23.298;2022-07-29T03:40:37;8.43;;;7.63;;
13032;SDS011;6583;42.632;23.298;2022-07-29T03:43:07;8.77;;;7.63;;
13032;SDS011;6583;42.632;23.298;2022-07-29T03:45:37;8.80;;;8.00;;
13032;SDS011;6583;42.632;23.298;2022-07-29T03:48:07;8.10;;;7.30;;
13032;SDS011;6583;42.632;23.298;2022-07-29T03:50:35;9.10;;;7.40;;
13032;SDS011;6583;42.632;23.298;2022-07-29T03:53:02;8.18;;;7.28;;
13032;SDS011;6583;42.632;23.298;2022-07-29T03:55:32;7.65;;;6.90;;
13032;SDS011;6583;42.632;23.298;2022-07-29T03:58:06;7.78;;;7.07;;
13032;SDS011;6583;42.632;23.298;2022-07-29T04:00:33;7.82;;;7.10;;
13032;SDS011;6583;42.632;23.298;2022-07-29T04:03:01;8.48;;;6.97;;
13032;SDS011;6583;42.632;23.298;2022-07-29T04:05:28;9.85;;;7.50;;
13032;SDS011;6583;42.632;23.298;2022-07-29T04:07:54;7.57;;;6.88;;
13032;SDS011;6583;42.632;23.298;2022-07-29T04:10:21;8.43;;;6.90;;
13032;SDS011;6583;42.632;23.298;2022-07-29T04:12:50;7.97;;;7.18;;
13032;SDS011;6583;42.632;23.298;2022-07-29T04:15:17;7.68;;;6.90;;
13032;SDS011;6583;42.632;23.298;2022-07-29T04:17:44;8.00;;;7.20;;
13032;SDS011;6583;42.632;23.298;2022-07-29T04:20:11;7.95;;;6.55;;
13032;SDS011;6583;42.632;23.298;2022-07-29T04:22:38;8.45;;;7.57;;
13032;SDS011;6583;42.632;23.298;2022-07-29T04:25:05;11.10;;;8.65;;
13032;SDS011;6583;42.632;23.298;2022-07-29T04:27:32;11.20;;;8.02;;
13032;SDS011;6583;42.632;23.298;2022-07-29T04:30:01;9.93;;;8.02;;
13032;SDS011;6583;42.632;23.298;2022-07-29T04:32:27;7.60;;;6.90;;
13032;SDS011;6583;42.632;23.298;2022-07-29T04:34:54;8.63;;;7.72;;
13032;SDS011;6583;42.632;23.298;2022-07-29T04:37:21;9.50;;;7.78;;
13032;SDS011;6583;42.632;23.298;2022-07-29T04:39:47;11.77;;;8.32;;
13032;SDS011;6583;42.632;23.298;2022-07-29T04:42:14;9.15;;;7.85;;
13032;SDS011;6583;42.632;23.298;2022-07-29T04:44:41;9.18;;;8.00;;
13032;SDS011;6583;42.632;23.298;2022-07-29T04:47:09;10.32;;;7.88;;
13032;SDS011;6583;42.632;23.298;2022-07-29T04:49:37;8.45;;;7.50;;
13032;SDS011;6583;42.632;23.298;2022-07-29T04:52:04;9.32;;;7.80;;
13032;SDS011;6583;42.632;23.298;2022-07-29T04:54:31;8.98;;;8.05;;
13032;SDS011;6583;42.632;23.298;2022-07-29T04:56:58;11.25;;;9.73;;
13032;SDS011;6583;42.632;23.298;2022-07-29T04:59:25;10.55;;;9.45;;
13032;SDS011;6583;42.632;23.298;2022-07-29T05:01:52;11.55;;;10.43;;
13032;SDS011;6583;42.632;23.298;2022-07-29T05:04:20;13.13;;;11.82;;
13032;SDS011;6583;42.632;23.298;2022-07-29T05:06:46;12.13;;;10.90;;
13032;SDS011;6583;42.632;23.298;2022-07-29T05:09:13;12.05;;;10.75;;
13032;SDS011;6583;42.632;23.298;2022-07-29T05:11:40;11.32;;;10.13;;
13032;SDS011;6583;42.632;23.298;2022-07-29T05:14:06;12.57;;;10.13;;
13032;SDS011;6583;42.632;23.298;2022-07-29T05:16:33;11.50;;;10.25;;
13032;SDS011;6583;42.632;23.298;2022-07-29T05:19:00;11.65;;;9.95;;
13032;SDS011;6583;42.632;23.298;2022-07-29T05:21:28;10.45;;;9.35;;
13032;SDS011;6583;42.632;23.298;2022-07-29T05:23:54;10.02;;;9.02;;
13032;SDS011;6583;42.632;23.298;2022-07-29T05:26:21;16.10;;;9.30;;
13032;SDS011;6583;42.632;23.298;2022-07-29T05:28:48;9.57;;;8.68;;
13032;SDS011;6583;42.632;23.298;2022-07-29T05:31:14;9.38;;;8.52;;
13032;SDS011;6583;42.632;23.298;2022-07-29T05:33:41;9.55;;;8.55;;
13032;SDS011;6583;42.632;23.298;2022-07-29T05:36:08;9.65;;;8.65;;
13032;SDS011;6583;42.632;23.298;2022-07-29T05:38:36;9.23;;;7.85;;
13032;SDS011;6583;42.632;23.298;2022-07-29T05:41:03;9.45;;;8.02;;
13032;SDS011;6583;42.632;23.298;2022-07-29T05:43:30;8.55;;;7.65;;
13032;SDS011;6583;42.632;23.298;2022-07-29T05:45:57;8.80;;;7.85;;
13032;SDS011;6583;42.632;23.298;2022-07-29T05:48:24;10.57;;;7.72;;
13032;SDS011;6583;42.632;23.298;2022-07-29T05:50:51;8.50;;;7.72;;
13032;SDS011;6583;42.632;23.298;2022-07-29T05:53:17;8.50;;;7.38;;
13032;SDS011;6583;42.632;23.298;2022-07-29T05:55:45;8.60;;;6.80;;
13032;SDS011;6583;42.632;23.298;2022-07-29T05:58:12;7.85;;;7.15;;
13032;SDS011;6583;42.632;23.298;2022-07-29T06:00:39;8.45;;;7.30;;
13032;SDS011;6583;42.632;23.298;2022-07-29T06:03:05;7.53;;;6.75;;
13032;SDS011;6583;42.632;23.298;2022-07-29T06:05:32;8.23;;;7.40;;
13032;SDS011;6583;42.632;23.298;2022-07-29T06:07:59;7.85;;;7.03;;
13032;SDS011;6583;42.632;23.298;2022-07-29T06:10:26;9.18;;;7.63;;
13032;SDS011;6583;42.632;23.298;2022-07-29T06:12:54;7.72;;;6.93;;
13032;SDS011;6583;42.632;23.298;2022-07-29T06:15:21;7.10;;;6.40;;
13032;SDS011;6583;42.632;23.298;2022-07-29T06:17:48;6.95;;;6.25;;
13032;SDS011;6583;42.632;23.298;2022-07-29T06:20:14;7.40;;;6.57;;
13032;SDS011;6583;42.632;23.298;2022-07-29T06:22:41;8.73;;;6.45;;
13032;SDS011;6583;42.632;23.298;2022-07-29T06:25:08;6.68;;;6.03;;
13032;SDS011;6583;42.632;23.298;2022-07-29T06:27:34;6.72;;;6.05;;
13032;SDS011;6583;42.632;23.298;2022-07-29T06:30:03;6.93;;;6.22;;
13032;SDS011;6583;42.632;23.298;2022-07-29T06:32:31;6.88;;;6.28;;
13032;SDS011;6583;42.632;23.298;2022-07-29T06:34:58;7.22;;;6.53;;
13032;SDS011;6583;42.632;23.298;2022-07-29T06:37:25;7.25;;;5.88;;
13032;SDS011;6583;42.632;23.298;2022-07-29T06:39:52;7.40;;;6.30;;
13032;SDS011;6583;42.632;23.298;2022-07-29T06:42:41;6.47;;;5.88;;
13032;SDS011;6583;42.632;23.298;2022-07-29T06:45:10;6.50;;;5.90;;
13032;SDS011;6583;42.632;23.298;2022-07-29T06:47:37;6.72;;;6.13;;
13032;SDS011;6583;42.632;23.298;2022-07-29T06:50:04;7.22;;;5.68;;
13032;SDS011;6583;42.632;23.298;2022-07-29T06:52:31;7.43;;;6.07;;
13032;SDS011;6583;42.632;23.298;2022-07-29T06:54:58;7.80;;;5.95;;
13032;SDS011;6583;42.632;23.298;2022-07-29T06:57:25;7.03;;;6.32;;
13032;SDS011;6583;42.632;23.298;2022-07-29T06:59:51;6.63;;;6.03;;
13032;SDS011;6583;42.632;23.298;2022-07-29T07:02:19;6.88;;;6.28;;
13032;SDS011;6583;42.632;23.298;2022-07-29T07:04:46;5.90;;;5.40;;
13032;SDS011;6583;42.632;23.298;2022-07-29T07:07:13;9.00;;;6.50;;
13032;SDS011;6583;42.632;23.298;2022-07-29T07:09:40;7.35;;;6.30;;
13032;SDS011;6583;42.632;23.298;2022-07-29T07:12:06;7.55;;;6.32;;
13032;SDS011;6583;42.632;23.298;2022-07-29T07:14:33;7.10;;;6.50;;
13032;SDS011;6583;42.632;23.298;2022-07-29T07:17:00;8.90;;;6.57;;
13032;SDS011;6583;42.632;23.298;2022-07-29T07:19:30;7.00;;;6.30;;
13032;SDS011;6583;42.632;23.298;2022-07-29T07:21:57;7.65;;;6.95;;
13032;SDS011;6583;42.632;23.298;2022-07-29T07:24:23;7.38;;;6.28;;
13032;SDS011;6583;42.632;23.298;2022-07-29T07:26:50;7.57;;;6.88;;
13032;SDS011;6583;42.632;23.298;2022-07-29T07:29:17;7.10;;;6.40;;
13032;SDS011;6583;42.632;23.298;2022-07-29T07:31:43;7.13;;;6.40;;
13032;SDS011;6583;42.632;23.298;2022-07-29T07:34:10;7.65;;;6.32;;
13032;SDS011;6583;42.632;23.298;2022-07-29T07:36:38;6.78;;;6.28;;
13032;SDS011;6583;42.632;23.298;2022-07-29T07:39:05;6.72;;;6.13;;
13032;SDS011;6583;42.632;23.298;2022-07-29T07:41:32;6.50;;;5.88;;
13032;SDS011;6583;42.632;23.298;2022-07-29T07:43:58;8.05;;;5.97;;
13032;SDS011;6583;42.632;23.298;2022-07-29T07:46:25;5.72;;;5.30;;
13032;SDS011;6583;42.632;23.298;2022-07-29T07:48:52;6.05;;;5.53;;
13032;SDS011;6583;42.632;23.298;2022-07-29T07:51:19;6.55;;;6.05;;
13032;SDS011;6583;42.632;23.298;2022-07-29T07:53:47;7.32;;;5.32;;
13032;SDS011;6583;42.632;23.298;2022-07-29T07:56:15;5.80;;;5.30;;
13032;SDS011;6583;42.632;23.298;2022-07-29T07:58:42;6.00;;;5.10;;
13032;SDS011;6583;42.632;23.298;2022-07-29T08:01:08;6.60;;;5.10;;
13032;SDS011;6583;42.632;23.298;2022-07-29T08:03:35;5.78;;;5.28;;
13032;SDS011;6583;42.632;23.298;2022-07-29T08:06:02;6.00;;;5.40;;
13032;SDS011;6583;42.632;23.298;2022-07-29T08:08:29;5.00;;;4.35;;
13032;SDS011;6583;42.632;23.298;2022-07-29T08:10:57;4.43;;;4.07;;
13032;SDS011;6583;42.632;23.298;2022-07-29T08:13:27;5.20;;;4.78;;
13032;SDS011;6583;42.632;23.298;2022-07-29T08:15:55;4.80;;;4.30;;
13032;SDS011;6583;42.632;23.298;2022-07-29T08:18:26;5.00;;;4.60;;
13032;SDS011;6583;42.632;23.298;2022-07-29T08:20:54;7.82;;;4.85;;
13032;SDS011;6583;42.632;23.298;2022-07-29T08:23:21;5.18;;;4.53;;
13032;SDS011;6583;42.632;23.298;2022-07-29T08:25:48;5.30;;;4.90;;
13032;SDS011;6583;42.632;23.298;2022-07-29T08:28:17;5.10;;;4.70;;
13032;SDS011;6583;42.632;23.298;2022-07-29T08:30:44;4.93;;;4.53;;
13032;SDS011;6583;42.632;23.298;2022-07-29T08:33:11;4.88;;;4.53;;
13032;SDS011;6583;42.632;23.298;2022-07-29T08:35:38;5.28;;;4.88;;
13032;SDS011;6583;42.632;23.298;2022-07-29T08:38:05;5.32;;;4.82;;
13032;SDS011;6583;42.632;23.298;2022-07-29T08:40:32;5.00;;;4.50;;
13032;SDS011;6583;42.632;23.298;2022-07-29T08:42:59;4.72;;;4.30;;
13032;SDS011;6583;42.632;23.298;2022-07-29T08:45:32;5.65;;;5.15;;
13032;SDS011;6583;42.632;23.298;2022-07-29T08:48:07;4.97;;;4.50;;
13032;SDS011;6583;42.632;23.298;2022-07-29T08:50:33;5.10;;;4.70;;
13032;SDS011;6583;42.632;23.298;2022-07-29T08:53:01;5.72;;;4.82;;
13032;SDS011;6583;42.632;23.298;2022-07-29T08:55:29;4.97;;;4.53;;
13032;SDS011;6583;42.632;23.298;2022-07-29T08:57:55;5.25;;;4.40;;
13032;SDS011;6583;42.632;23.298;2022-07-29T09:00:23;5.18;;;4.70;;
13032;SDS011;6583;42.632;23.298;2022-07-29T09:02:56;4.60;;;4.20;;
13032;SDS011;6583;42.632;23.298;2022-07-29T09:05:24;4.80;;;4.40;;
13032;SDS011;6583;42.632;23.298;2022-07-29T09:07:52;5.97;;;5.07;;
13032;SDS011;6583;42.632;23.298;2022-07-29T09:10:20;7.30;;;4.72;;
13032;SDS011;6583;42.632;23.298;2022-07-29T09:12:47;4.90;;;4.50;;
13032;SDS011;6583;42.632;23.298;2022-07-29T09:15:14;5.38;;;4.95;;
13032;SDS011;6583;42.632;23.298;2022-07-29T09:17:42;4.97;;;4.57;;
13032;SDS011;6583;42.632;23.298;2022-07-29T09:20:13;5.15;;;4.65;;
13032;SDS011;6583;42.632;23.298;2022-07-29T09:22:41;5.32;;;4.85;;
13032;SDS011;6583;42.632;23.298;2022-07-29T09:25:08;5.18;;;4.78;;
13032;SDS011;6583;42.632;23.298;2022-07-29T09:27:38;5.40;;;4.90;;
13032;SDS011;6583;42.632;23.298;2022-07-29T09:30:05;5.18;;;4.75;;
13032;SDS011;6583;42.632;23.298;2022-07-29T09:32:53;5.50;;;5.10;;
13032;SDS011;6583;42.632;23.298;2022-07-29T09:35:22;5.18;;;4.60;;
13032;SDS011;6583;42.632;23.298;2022-07-29T09:37:50;4.70;;;4.30;;
13032;SDS011;6583;42.632;23.298;2022-07-29T09:40:19;5.72;;;5.22;;
13032;SDS011;6583;42.632;23.298;2022-07-29T09:42:47;5.50;;;5.07;;
13032;SDS011;6583;42.632;23.298;2022-07-29T09:45:26;5.70;;;5.30;;
13032;SDS011;6583;42.632;23.298;2022-07-29T09:47:54;5.25;;;4.75;;
13032;SDS011;6583;42.632;23.298;2022-07-29T09:50:33;5.38;;;4.88;;
13032;SDS011;6583;42.632;23.298;2022-07-29T09:53:01;4.95;;;4.55;;
13032;SDS011;6583;42.632;23.298;2022-07-29T09:55:28;5.00;;;4.60;;
13032;SDS011;6583;42.632;23.298;2022-07-29T09:57:55;4.97;;;4.57;;
13032;SDS011;6583;42.632;23.298;2022-07-29T10:00:41;5.47;;;5.07;;
13032;SDS011;6583;42.632;23.298;2022-07-29T10:03:09;5.75;;;5.15;;
13032;SDS011;6583;42.632;23.298;2022-07-29T10:05:37;5.38;;;4.85;;
13032;SDS011;6583;42.632;23.298;2022-07-29T10:08:04;5.53;;;5.03;;
13032;SDS011;6583;42.632;23.298;2022-07-29T10:10:33;5.65;;;5.15;;
13032;SDS011;6583;42.632;23.298;2022-07-29T10:13:01;5.50;;;5.00;;
13032;SDS011;6583;42.632;23.298;2022-07-29T10:15:30;5.65;;;5.15;;
13032;SDS011;6583;42.632;23.298;2022-07-29T10:17:59;5.85;;;5.35;;
13032;SDS011;6583;42.632;23.298;2022-07-29T10:20:26;7.43;;;5.80;;
13032;SDS011;6583;42.632;23.298;2022-07-29T10:22:55;6.22;;;5.57;;
13032;SDS011;6583;42.632;23.298;2022-07-29T10:25:22;6.00;;;5.50;;
13032;SDS011;6583;42.632;23.298;2022-07-29T10:27:49;6.40;;;5.50;;
13032;SDS011;6583;42.632;23.298;2022-07-29T10:30:17;5.82;;;5.22;;
13032;SDS011;6583;42.632;23.298;2022-07-29T10:44:32;5.80;;;5.30;;
13032;SDS011;6583;42.632;23.298;2022-07-29T10:47:00;6.07;;;5.68;;
13032;SDS011;6583;42.632;23.298;2022-07-29T10:49:26;6.15;;;5.65;;
13032;SDS011;6583;42.632;23.298;2022-07-29T10:52:01;6.70;;;5.95;;
13032;SDS011;6583;42.632;23.298;2022-07-29T10:54:38;6.28;;;5.78;;
13032;SDS011;6583;42.632;23.298;2022-07-29T10:57:11;6.25;;;5.10;;
13032;SDS011;6583;42.632;23.298;2022-07-29T10:59:42;6.00;;;5.50;;
13032;SDS011;6583;42.632;23.298;2022-07-29T11:05:09;5.47;;;4.97;;
13032;SDS011;6583;42.632;23.298;2022-07-29T11:07:37;7.05;;;5.60;;
13032;SDS011;6583;42.632;23.298;2022-07-29T11:12:49;5.95;;;5.38;;
13032;SDS011;6583;42.632;23.298;2022-07-29T11:15:17;5.70;;;5.20;;
13032;SDS011;6583;42.632;23.298;2022-07-29T11:18:05;5.57;;;5.07;;
13032;SDS011;6583;42.632;23.298;2022-07-29T11:20:34;6.15;;;5.65;;
13032;SDS011;6583;42.632;23.298;2022-07-29T11:23:19;6.15;;;5.60;;
13032;SDS011;6583;42.632;23.298;2022-07-29T11:28:56;6.38;;;5.85;;
13032;SDS011;6583;42.632;23.298;2022-07-29T11:34:17;5.80;;;5.30;;
13032;SDS011;6583;42.632;23.298;2022-07-29T11:39:44;6.10;;;5.60;;
13032;SDS011;6583;42.632;23.298;2022-07-29T11:45:16;6.00;;;5.43;;
13032;SDS011;6583;42.632;23.298;2022-07-29T11:47:52;7.47;;;6.10;;
13032;SDS011;6583;42.632;23.298;2022-07-29T11:50:30;6.03;;;5.53;;
13032;SDS011;6583;42.632;23.298;2022-07-29T11:52:58;6.78;;;5.95;;
13032;SDS011;6583;42.632;23.298;2022-07-29T11:55:26;5.97;;;5.47;;
13032;SDS011;6583;42.632;23.298;2022-07-29T11:57:55;5.72;;;5.32;;
13032;SDS011;6583;42.632;23.298;2022-07-29T12:00:25;7.00;;;6.28;;
13032;SDS011;6583;42.632;23.298;2022-07-29T12:02:53;6.60;;;6.00;;
13032;SDS011;6583;42.632;23.298;2022-07-29T12:05:21;6.10;;;5.60;;
13032;SDS011;6583;42.632;23.298;2022-07-29T12:08:03;6.25;;;5.18;;
13032;SDS011;6583;42.632;23.298;2022-07-29T12:10:31;6.38;;;5.85;;
13032;SDS011;6583;42.632;23.298;2022-07-29T12:12:59;6.03;;;5.53;;
13032;SDS011;6583;42.632;23.298;2022-07-29T12:15:26;6.13;;;5.53;;
13032;SDS011;6583;42.632;23.298;2022-07-29T12:17:53;6.40;;;5.80;;
13032;SDS011;6583;42.632;23.298;2022-07-29T12:20:23;6.57;;;6.00;;
13032;SDS011;6583;42.632;23.298;2022-07-29T12:22:51;6.32;;;5.72;;
13032;SDS011;6583;42.632;23.298;2022-07-29T12:25:19;5.88;;;5.38;;
13032;SDS011;6583;42.632;23.298;2022-07-29T12:27:47;6.43;;;5.93;;
13032;SDS011;6583;42.632;23.298;2022-07-29T12:30:34;5.90;;;5.40;;
13032;SDS011;6583;42.632;23.298;2022-07-29T12:33:10;6.05;;;5.55;;
13032;SDS011;6583;42.632;23.298;2022-07-29T12:35:37;6.03;;;5.53;;
13032;SDS011;6583;42.632;23.298;2022-07-29T12:38:05;6.20;;;5.63;;
13032;SDS011;6583;42.632;23.298;2022-07-29T12:40:32;5.95;;;5.45;;
13032;SDS011;6583;42.632;23.298;2022-07-29T12:43:05;6.22;;;5.72;;
13032;SDS011;6583;42.632;23.298;2022-07-29T12:45:35;6.20;;;5.70;;
13032;SDS011;6583;42.632;23.298;2022-07-29T12:48:03;5.80;;;5.20;;
13032;SDS011;6583;42.632;23.298;2022-07-29T12:50:33;5.43;;;4.93;;
13032;SDS011;6583;42.632;23.298;2022-07-29T12:53:10;5.70;;;5.20;;
13032;SDS011;6583;42.632;23.298;2022-07-29T12:55:39;6.20;;;5.60;;
13032;SDS011;6583;42.632;23.298;2022-07-29T12:58:07;5.82;;;5.40;;
13032;SDS011;6583;42.632;23.298;2022-07-29T13:00:35;6.22;;;5.72;;
13032;SDS011;6583;42.632;23.298;2022-07-29T13:03:02;6.05;;;5.45;;
13032;SDS011;6583;42.632;23.298;2022-07-29T13:05:39;5.82;;;5.38;;
13032;SDS011;6583;42.632;23.298;2022-07-29T13:08:11;5.63;;;5.22;;
13032;SDS011;6583;42.632;23.298;2022-07-29T13:10:43;5.78;;;5.38;;
13032;SDS011;6583;42.632;23.298;2022-07-29T13:13:10;6.30;;;5.47;;
13032;SDS011;6583;42.632;23.298;2022-07-29T13:15:40;6.25;;;5.50;;
13032;SDS011;6583;42.632;23.298;2022-07-29T13:20:52;6.15;;;5.35;;
13032;SDS011;6583;42.632;23.298;2022-07-29T13:23:19;5.82;;;5.40;;
13032;SDS011;6583;42.632;23.298;2022-07-29T13:25:45;6.28;;;5.70;;
13032;SDS011;6583;42.632;23.298;2022-07-29T13:28:12;5.88;;;5.40;;
13032;SDS011;6583;42.632;23.298;2022-07-29T13:30:40;5.80;;;5.10;;
13032;SDS011;6583;42.632;23.298;2022-07-29T13:33:07;5.38;;;4.97;;
13032;SDS011;6583;42.632;23.298;2022-07-29T13:35:34;5.60;;;5.07;;
13032;SDS011;6583;42.632;23.298;2022-07-29T13:38:00;5.75;;;5.25;;
13032;SDS011;6583;42.632;23.298;2022-07-29T13:40:28;5.28;;;4.88;;
13032;SDS011;6583;42.632;23.298;2022-07-29T13:42:55;5.55;;;5.13;;
13032;SDS011;6583;42.632;23.298;2022-07-29T13:45:22;5.28;;;4.88;;
13032;SDS011;6583;42.632;23.298;2022-07-29T13:47:50;5.53;;;5.03;;
13032;SDS011;6583;42.632;23.298;2022-07-29T13:50:16;5.50;;;5.10;;
13032;SDS011;6583;42.632;23.298;2022-07-29T13:52:43;5.68;;;5.20;;
13032;SDS011;6583;42.632;23.298;2022-07-29T13:55:12;5.68;;;5.28;;
13032;SDS011;6583;42.632;23.298;2022-07-29T13:57:38;5.93;;;5.32;;
13032;SDS011;6583;42.632;23.298;2022-07-29T14:00:05;6.30;;;5.50;;
13032;SDS011;6583;42.632;23.298;2022-07-29T14:02:33;5.70;;;5.30;;
13032;SDS011;6583;42.632;23.298;2022-07-29T14:05:01;5.50;;;5.07;;
13032;SDS011;6583;42.632;23.298;2022-07-29T14:07:28;6.57;;;6.03;;
13032;SDS011;6583;42.632;23.298;2022-07-29T14:09:54;5.65;;;5.25;;
13032;SDS011;6583;42.632;23.298;2022-07-29T14:12:21;6.25;;;5.65;;
13032;SDS011;6583;42.632;23.298;2022-07-29T14:14:48;6.50;;;6.00;;
13032;SDS011;6583;42.632;23.298;2022-07-29T14:17:15;6.00;;;5.55;;
13032;SDS011;6583;42.632;23.298;2022-07-29T14:19:42;5.97;;;5.47;;
13032;SDS011;6583;42.632;23.298;2022-07-29T14:22:10;6.43;;;5.93;;
13032;SDS011;6583;42.632;23.298;2022-07-29T14:24:37;6.05;;;5.65;;
13032;SDS011;6583;42.632;23.298;2022-07-29T14:27:04;6.13;;;5.63;;
13032;SDS011;6583;42.632;23.298;2022-07-29T14:29:31;6.28;;;5.72;;
13032;SDS011;6583;42.632;23.298;2022-07-29T14:31:58;6.50;;;5.78;;
13032;SDS011;6583;42.632;23.298;2022-07-29T14:34:25;5.75;;;5.35;;
13032;SDS011;6583;42.632;23.298;2022-07-29T14:36:51;6.40;;;5.90;;
13032;SDS011;6583;42.632;23.298;2022-07-29T14:39:21;6.28;;;5.47;;
13032;SDS011;6583;42.632;23.298;2022-07-29T14:41:49;6.40;;;5.90;;
13032;SDS011;6583;42.632;23.298;2022-07-29T14:44:16;6.10;;;5.50;;
13032;SDS011;6583;42.632;23.298;2022-07-29T14:46:42;6.68;;;6.07;;
13032;SDS011;6583;42.632;23.298;2022-07-29T14:49:09;6.40;;;5.90;;
13032;SDS011;6583;42.632;23.298;2022-07-29T14:51:36;6.55;;;6.03;;
13032;SDS011;6583;42.632;23.298;2022-07-29T14:54:03;6.45;;;5.85;;
13032;SDS011;6583;42.632;23.298;2022-07-29T14:56:31;7.22;;;6.53;;
13032;SDS011;6583;42.632;23.298;2022-07-29T14:58:57;6.20;;;5.70;;
13032;SDS011;6583;42.632;23.298;2022-07-29T15:01:24;6.22;;;5.72;;
13032;SDS011;6583;42.632;23.298;2022-07-29T15:03:51;6.97;;;6.13;;
13032;SDS011;6583;42.632;23.298;2022-07-29T15:06:18;6.43;;;5.93;;
13032;SDS011;6583;42.632;23.298;2022-07-29T15:08:44;6.88;;;6.28;;
13032;SDS011;6583;42.632;23.298;2022-07-29T15:11:11;6.35;;;5.85;;
13032;SDS011;6583;42.632;23.298;2022-07-29T15:13:39;6.38;;;5.78;;
13032;SDS011;6583;42.632;23.298;2022-07-29T15:16:07;8.10;;;6.63;;
13032;SDS011;6583;42.632;23.298;2022-07-29T15:18:34;6.50;;;5.95;;
13032;SDS011;6583;42.632;23.298;2022-07-29T15:21:02;6.50;;;6.00;;
13032;SDS011;6583;42.632;23.298;2022-07-29T15:23:31;6.97;;;6.25;;
13032;SDS011;6583;42.632;23.298;2022-07-29T15:25:58;6.20;;;5.70;;
13032;SDS011;6583;42.632;23.298;2022-07-29T15:28:24;6.82;;;6.22;;